Portada
METAR-TAF:

METAR-TAF

Aeroports :

Bratsk, Rússia

latitud: 56-22-15N, longitud: 101-41-55E, altitud: 490 m

Observació

L'informe es va fer fa 29 minuts, a les 17:30 UTC
Vent 6 kt del Oest, variant entre Oest/Sud-Oest i Nord-Oest
Temperatura -16°C
Humitat 78%
Pressió 1021 hPa
Visibilitat: 4900 m

METAR: UIBB 091730Z AUTO 28003MPS 240V310 4900 // ///010/// M16/M19 Q1021 RMK QFE723/0964

Hora: 01:59 (17:59 UTC)

Pronòstic

L'informe es va fer fa 59 minuts, a les 17:00 UTC
Pronòstic vàlid del 09 a les 18 UTC al 10 a les 18 UTC
Vent 6 kt del Oest amb ràfegues de 16 kt
Visibilitat: 4000 m
Escasses núvols a una alçada de 200 ft
Cel ennuvolat a una alçada de 1600 ft, Cumulonimbus.
xàfecs de neu
Evolucionant progressivament
l' 10 a les 02 UTC al 10 a les 03 UTC
Vent 10 kt del Sud/Sud-Oest

TAF: UIBB 091700Z 0918/1018 28003G08MPS 4000 -SHSN FEW002 BKN016CB BECMG 1002/1003 20005MPS

Observacions i pronòstics meteorològics de més de 4000 aeroports (METAR i TAF).

Les estacions disponibles són els punts grocs i vermells al mapa.

Posi el ratolí al punt desitjat per veure el nom de l'estació.

Feu clic per veure les observacions i els pronòstics meteorològics.

Per canviar el mapa: feu clic els botons verds amb una creu de color negre per apropar; al botó verd amb un guió per allunyar la imatge; o en les fletxes verdes per a mapes adjacents.


METAR-TAF: